Time;durP1;ratioP1;P1;durP2;ratioP2;P2;SDS_P1;SDS_P2;PMS_P1;PMS_P2;Temp;Humidity;BMP_temperature;BMP_pressure;BME280_temperature;BME280_humidity;BME280_pressure;Samples;Min_cycle;Max_cycle;Signal;HPM_P1;HPM_P2
2022/04/06 00:01:40;;;;;;;0.10;0.10;;;10.30;99.90;;;;;;5012880;28;20497;-69
2022/04/06 00:04:06;;;;;;;0.10;0.10;;;10.40;99.90;;;;;;5009047;28;20080;-69
2022/04/06 00:06:32;;;;;;;0.10;0.10;;;10.40;99.90;;;;;;5006715;28;20056;-68
2022/04/06 00:08:57;;;;;;;0.10;0.10;;;10.30;99.90;;;;;;5004260;28;20044;-69
2022/04/06 00:11:23;;;;;;;0.10;0.10;;;10.30;99.90;;;;;;5006557;28;20048;-68
2022/04/06 00:13:49;;;;;;;0.10;0.10;;;10.30;99.90;;;;;;5009081;28;20037;-67
2022/04/06 00:16:15;;;;;;;0.10;0.10;;;10.30;99.90;;;;;;5001912;28;20037;-69
2022/04/06 00:18:41;;;;;;;0.10;0.10;;;10.40;99.90;;;;;;5004670;28;20414;-69
2022/04/06 00:21:07;;;;;;;0.10;0.10;;;10.30;99.90;;;;;;5005429;28;20047;-69
2022/04/06 00:23:32;;;;;;;0.32;0.32;;;10.30;99.90;;;;;;5009579;28;20156;-68
2022/04/06 00:25:58;;;;;;;0.10;0.10;;;10.30;99.90;;;;;;4989082;28;20429;-68
2022/04/06 00:28:24;;;;;;;0.10;0.10;;;10.30;99.90;;;;;;5002995;28;20036;-69
2022/04/06 00:30:49;;;;;;;0.10;0.10;;;10.30;99.90;;;;;;5008739;28;20370;-70
2022/04/06 00:33:15;;;;;;;0.10;0.10;;;10.30;99.90;;;;;;5001351;28;20255;-69
2022/04/06 00:35:40;;;;;;;0.10;0.10;;;10.30;99.90;;;;;;5004056;28;20041;-69
2022/04/06 00:38:07;;;;;;;0.10;0.10;;;10.30;99.90;;;;;;5005517;28;20026;-68
2022/04/06 00:40:34;;;;;;;6.82;3.83;;;10.30;99.90;;;;;;5009376;28;20037;-68
2022/04/06 00:43:05;;;;;;;0.10;0.10;;;10.30;99.90;;;;;;5005024;28;20036;-69
2022/04/06 00:45:30;;;;;;;0.10;0.10;;;10.40;99.90;;;;;;4999886;28;20117;-69
2022/04/06 00:47:56;;;;;;;0.10;0.10;;;10.30;99.90;;;;;;5003014;28;20454;-69
2022/04/06 00:50:23;;;;;;;0.10;0.10;;;10.30;99.90;;;;;;5007550;28;20026;-69
2022/04/06 00:52:55;;;;;;;0.10;0.10;;;10.30;99.90;;;;;;5003316;28;20034;-69
2022/04/06 00:55:29;;;;;;;0.10;0.10;;;10.40;99.90;;;;;;5003750;28;20310;-70
2022/04/06 00:57:55;;;;;;;0.45;0.45;;;10.30;99.90;;;;;;5001066;28;20041;-70
2022/04/06 01:00:21;;;;;;;0.10;0.10;;;10.40;99.90;;;;;;5004432;28;20025;-69
2022/04/06 01:02:47;;;;;;;0.10;0.10;;;10.40;99.90;;;;;;5010010;28;20036;-69
2022/04/06 01:05:13;;;;;;;0.20;0.20;;;10.40;99.90;;;;;;5007069;28;20038;-69
2022/04/06 01:07:40;;;;;;;0.10;0.10;;;10.30;99.90;;;;;;5004810;28;20037;-68
2022/04/06 01:10:06;;;;;;;0.10;0.10;;;10.30;99.90;;;;;;5009959;28;20030;-69
2022/04/06 01:12:34;;;;;;;0.10;0.10;;;10.40;99.90;;;;;;5009854;28;20034;-68
2022/04/06 01:15:00;;;;;;;0.10;0.10;;;10.40;99.90;;;;;;5010262;28;20049;-68
2022/04/06 01:17:33;;;;;;;0.10;0.10;;;10.40;99.90;;;;;;5009786;28;20493;-69
2022/04/06 01:20:00;;;;;;;0.10;0.10;;;10.40;99.90;;;;;;5007922;28;20103;-69
2022/04/06 01:22:26;;;;;;;0.10;0.10;;;10.30;99.90;;;;;;5008420;28;20034;-69
2022/04/06 01:24:52;;;;;;;0.10;0.10;;;10.30;99.90;;;;;;5005438;28;20022;-68
2022/04/06 01:27:18;;;;;;;0.10;0.10;;;10.40;99.90;;;;;;5008964;28;20370;-68
2022/04/06 01:29:44;;;;;;;0.10;0.10;;;10.40;99.90;;;;;;5012330;28;20430;-68
2022/04/06 01:32:18;;;;;;;0.10;0.10;;;10.30;99.90;;;;;;5006558;28;20030;-68
2022/04/06 01:34:45;;;;;;;0.10;0.10;;;10.40;99.90;;;;;;5004006;28;20022;-69
2022/04/06 01:37:12;;;;;;;0.10;0.10;;;10.40;99.90;;;;;;5009218;28;20025;-69
2022/04/06 01:39:40;;;;;;;0.10;0.10;;;10.40;99.90;;;;;;5006246;28;20473;-69
2022/04/06 01:42:07;;;;;;;0.15;0.15;;;10.40;99.90;;;;;;5008436;28;20080;-69
2022/04/06 01:44:33;;;;;;;0.10;0.10;;;10.30;99.90;;;;;;5009473;28;20519;-69
2022/04/06 01:47:04;;;;;;;0.10;0.10;;;10.40;99.90;;;;;;5010613;28;20109;-69
2022/04/06 01:52:15;;;;;;;0.10;0.10;;;10.40;99.90;;;;;;5008972;28;20048;-69
2022/04/06 01:54:49;;;;;;;0.10;0.10;;;10.40;99.90;;;;;;5005151;28;20105;-69
2022/04/06 01:57:15;;;;;;;0.10;0.10;;;10.40;99.90;;;;;;5008503;28;20038;-69
2022/04/06 01:59:42;;;;;;;0.10;0.10;;;10.40;99.90;;;;;;4995336;28;20473;-69
2022/04/06 02:02:10;;;;;;;0.10;0.10;;;10.30;99.90;;;;;;5010599;28;20525;-70
2022/04/06 02:04:37;;;;;;;0.10;0.10;;;10.40;99.90;;;;;;5012149;28;20034;-69
2022/04/06 02:07:04;;;;;;;0.10;0.10;;;10.40;99.90;;;;;;5011031;28;20029;-69
2022/04/06 02:09:29;;;;;;;0.10;0.10;;;10.40;99.90;;;;;;5012233;28;20493;-69
2022/04/06 02:11:56;;;;;;;0.20;0.20;;;10.40;99.90;;;;;;5013193;28;20038;-68
2022/04/06 02:14:23;;;;;;;0.10;0.10;;;10.40;99.90;;;;;;5003739;28;20045;-69
2022/04/06 02:16:49;;;;;;;0.10;0.10;;;10.40;99.90;;;;;;5007547;28;20039;-68
2022/04/06 02:19:14;;;;;;;0.10;0.10;;;10.30;99.90;;;;;;5005386;28;20077;-68
2022/04/06 02:21:40;;;;;;;0.10;0.10;;;10.40;99.90;;;;;;5005735;28;20052;-69
2022/04/06 02:24:06;;;;;;;0.10;0.10;;;10.30;99.90;;;;;;5002111;28;20417;-69
2022/04/06 02:26:32;;;;;;;0.40;0.40;;;10.30;99.90;;;;;;5004463;28;20049;-69
2022/04/06 02:28:59;;;;;;;0.10;0.10;;;10.30;99.90;;;;;;5006083;28;20026;-68
2022/04/06 02:31:25;;;;;;;0.10;0.10;;;10.30;99.90;;;;;;5008996;28;20055;-69
2022/04/06 02:33:51;;;;;;;0.10;0.10;;;10.30;99.90;;;;;;5010611;28;20424;-69
2022/04/06 02:36:17;;;;;;;0.10;0.10;;;10.30;99.90;;;;;;5009329;28;20025;-69
2022/04/06 02:38:44;;;;;;;0.10;0.10;;;10.30;99.90;;;;;;5006406;28;20024;-69
2022/04/06 02:41:09;;;;;;;0.10;0.10;;;10.30;99.90;;;;;;5005490;28;20022;-68
2022/04/06 02:43:35;;;;;;;7.10;4.88;;;10.30;99.90;;;;;;5006909;28;20616;-68
2022/04/06 02:46:01;;;;;;;0.10;0.10;;;10.30;99.90;;;;;;5010803;28;20054;-69
2022/04/06 02:48:27;;;;;;;0.10;0.10;;;10.30;99.90;;;;;;5007760;28;20137;-68
2022/04/06 02:50:52;;;;;;;0.10;0.10;;;10.30;99.90;;;;;;5005079;28;20390;-68
2022/04/06 02:53:18;;;;;;;0.10;0.10;;;9.80;99.90;;;;;;5010849;28;20100;-69
2022/04/06 02:55:44;;;;;;;0.10;0.10;;;10.30;99.90;;;;;;5005106;28;20038;-68
2022/04/06 02:58:09;;;;;;;0.10;0.10;;;10.30;99.90;;;;;;5008012;28;20033;-69
2022/04/06 03:00:35;;;;;;;0.20;0.20;;;10.30;99.90;;;;;;5003292;28;20034;-70
2022/04/06 03:03:02;;;;;;;0.10;0.10;;;10.30;99.90;;;;;;5006764;28;20026;-68
2022/04/06 03:05:28;;;;;;;0.10;0.10;;;10.30;99.90;;;;;;5007653;28;20026;-68
2022/04/06 03:07:53;;;;;;;0.20;0.20;;;10.30;99.90;;;;;;5001309;28;20073;-69
2022/04/06 03:10:19;;;;;;;0.10;0.10;;;10.20;99.90;;;;;;5004101;28;20104;-69
2022/04/06 03:12:45;;;;;;;0.10;0.10;;;10.20;99.90;;;;;;5012674;28;20044;-69
2022/04/06 03:15:11;;;;;;;0.10;0.10;;;10.20;99.90;;;;;;5002443;28;20025;-68
2022/04/06 03:17:37;;;;;;;0.10;0.10;;;10.20;99.90;;;;;;5002727;28;20139;-68
2022/04/06 03:20:07;;;;;;;0.60;0.60;;;10.20;99.90;;;;;;5009072;28;20025;-70
2022/04/06 03:22:32;;;;;;;0.10;0.10;;;10.20;99.90;;;;;;5004441;28;20022;-68
2022/04/06 03:24:58;;;;;;;0.10;0.10;;;10.20;99.90;;;;;;5001993;28;20401;-69
2022/04/06 03:27:24;;;;;;;0.10;0.10;;;10.20;99.90;;;;;;5005377;28;20509;-69
2022/04/06 03:29:49;;;;;;;0.47;0.47;;;10.30;99.90;;;;;;5007020;28;20029;-70
2022/04/06 03:32:15;;;;;;;0.10;0.10;;;10.20;99.90;;;;;;5003137;28;20030;-69
2022/04/06 03:34:41;;;;;;;0.13;0.13;;;10.20;99.90;;;;;;5002657;28;20555;-69
2022/04/06 03:37:06;;;;;;;0.10;0.10;;;10.20;99.90;;;;;;5008082;28;20512;-73
2022/04/06 03:39:32;;;;;;;0.10;0.10;;;10.20;99.90;;;;;;5009307;28;20108;-71
2022/04/06 03:41:58;;;;;;;0.10;0.10;;;10.20;99.90;;;;;;5004646;28;20466;-68
2022/04/06 03:44:23;;;;;;;0.10;0.10;;;10.20;99.90;;;;;;5001461;28;20500;-69
2022/04/06 03:46:49;;;;;;;0.10;0.10;;;10.20;99.90;;;;;;5004254;28;20053;-68
2022/04/06 03:49:16;;;;;;;0.10;0.10;;;10.20;99.90;;;;;;5009283;28;20095;-69
2022/04/06 03:51:42;;;;;;;0.10;0.10;;;10.20;99.90;;;;;;5003142;28;20351;-69
2022/04/06 03:54:08;;;;;;;0.77;0.77;;;10.20;99.90;;;;;;5000126;28;20033;-69
2022/04/06 03:56:34;;;;;;;0.10;0.10;;;10.20;99.90;;;;;;5007210;28;20095;-69
2022/04/06 03:58:59;;;;;;;0.10;0.10;;;10.20;99.90;;;;;;5005888;28;20960;-70
2022/04/06 04:01:25;;;;;;;0.10;0.10;;;10.20;99.90;;;;;;5006443;28;20632;-69
2022/04/06 04:03:51;;;;;;;0.10;0.10;;;10.20;99.90;;;;;;4999628;28;20036;-68
2022/04/06 04:06:16;;;;;;;0.10;0.10;;;10.20;99.90;;;;;;5007006;28;20037;-68
2022/04/06 04:08:42;;;;;;;0.10;0.10;;;10.20;99.90;;;;;;5007324;28;20053;-68
2022/04/06 04:11:08;;;;;;;0.10;0.10;;;10.20;99.90;;;;;;5009811;28;20033;-69
2022/04/06 04:13:34;;;;;;;0.10;0.10;;;10.20;99.90;;;;;;5007730;28;20084;-69
2022/04/06 04:16:00;;;;;;;0.10;0.10;;;10.20;99.90;;;;;;5006020;28;20026;-69
2022/04/06 04:18:25;;;;;;;0.35;0.35;;;10.20;99.90;;;;;;5007340;28;20030;-70
2022/04/06 04:21:31;;;;;;;0.10;0.10;;;10.20;99.90;;;;;;5003619;28;20085;-69
2022/04/06 04:23:36;;;;;;;0.10;0.10;;;10.20;99.90;;;;;;5004379;28;20682;-68
2022/04/06 04:26:02;;;;;;;0.10;0.10;;;10.20;99.90;;;;;;5004714;28;20145;-70
2022/04/06 04:28:28;;;;;;;0.10;0.10;;;10.20;99.90;;;;;;5001878;28;20034;-68
2022/04/06 04:30:53;;;;;;;0.10;0.10;;;10.20;99.90;;;;;;5006129;28;20076;-69
2022/04/06 04:33:19;;;;;;;0.10;0.10;;;10.20;99.90;;;;;;5002668;28;20022;-69
2022/04/06 04:35:44;;;;;;;0.20;0.20;;;10.20;99.90;;;;;;5004526;28;20041;-68
2022/04/06 04:38:11;;;;;;;0.10;0.10;;;10.20;99.90;;;;;;5006726;28;20104;-71
2022/04/06 04:40:37;;;;;;;0.10;0.10;;;10.20;99.90;;;;;;5004093;28;20106;-69
2022/04/06 04:43:03;;;;;;;2.28;2.17;;;10.20;99.90;;;;;;5006312;28;20041;-68
2022/04/06 04:45:28;;;;;;;0.22;0.22;;;10.20;99.90;;;;;;5006412;28;20022;-69
2022/04/06 04:47:54;;;;;;;0.10;0.10;;;10.30;99.90;;;;;;5002134;28;20120;-68
2022/04/06 04:50:20;;;;;;;0.10;0.10;;;10.20;99.90;;;;;;5007667;28;20100;-69
2022/04/06 04:52:46;;;;;;;0.10;0.10;;;10.20;99.90;;;;;;5005417;28;20037;-68
2022/04/06 04:55:11;;;;;;;0.10;0.10;;;10.20;99.90;;;;;;5006169;28;21639;-69
2022/04/06 04:57:37;;;;;;;0.10;0.10;;;10.20;99.90;;;;;;5006217;28;20492;-69
2022/04/06 05:00:06;;;;;;;0.10;0.10;;;10.20;99.90;;;;;;5005355;28;20030;-69
2022/04/06 05:02:32;;;;;;;0.10;0.10;;;10.20;99.90;;;;;;5002659;28;20026;-70
2022/04/06 05:04:57;;;;;;;0.10;0.10;;;10.30;99.90;;;;;;5003380;28;20041;-70
2022/04/06 05:07:23;;;;;;;0.10;0.10;;;10.20;99.90;;;;;;5003041;28;20052;-68
2022/04/06 05:09:49;;;;;;;0.10;0.10;;;10.20;99.90;;;;;;5001125;28;20540;-69
2022/04/06 05:12:16;;;;;;;0.10;0.10;;;10.20;99.90;;;;;;5004608;28;20100;-69
2022/04/06 05:14:41;;;;;;;0.30;0.30;;;10.20;99.90;;;;;;4998258;28;20053;-69
2022/04/06 05:17:07;;;;;;;3.63;2.83;;;10.20;99.90;;;;;;5002046;28;20224;-69
2022/04/06 05:19:33;;;;;;;0.10;0.10;;;10.20;99.90;;;;;;5003093;28;20018;-69
2022/04/06 05:21:59;;;;;;;0.10;0.10;;;10.30;99.90;;;;;;5001569;28;20505;-69
2022/04/06 05:24:26;;;;;;;0.10;0.10;;;10.30;99.90;;;;;;5007189;28;20022;-69
2022/04/06 05:26:51;;;;;;;0.22;0.22;;;10.30;99.90;;;;;;5006815;28;20072;-69
2022/04/06 05:29:17;;;;;;;0.10;0.10;;;10.30;99.90;;;;;;5007992;28;20030;-68
2022/04/06 05:31:43;;;;;;;0.10;0.10;;;10.30;99.90;;;;;;5005425;28;20022;-69
2022/04/06 05:36:48;;;;;;;0.10;0.10;;;10.30;99.90;;;;;;5912725;22;20052;-71
2022/04/06 05:39:13;;;;;;;0.10;0.10;;;10.30;99.90;;;;;;5021825;28;20029;-73
2022/04/06 05:41:39;;;;;;;0.10;0.10;;;10.30;99.90;;;;;;5017030;28;20048;-67
2022/04/06 05:44:05;;;;;;;0.10;0.10;;;10.30;99.90;;;;;;5016919;28;20025;-67
2022/04/06 05:46:30;;;;;;;0.10;0.10;;;10.30;99.90;;;;;;5017709;28;20076;-68
2022/04/06 05:48:56;;;;;;;0.10;0.10;;;10.30;99.90;;;;;;5023893;22;20061;-69
2022/04/06 05:51:22;;;;;;;0.10;0.10;;;10.70;99.90;;;;;;5025473;28;20035;-69
2022/04/06 05:53:47;;;;;;;0.10;0.10;;;10.50;99.90;;;;;;5027379;28;20037;-69
2022/04/06 05:56:13;;;;;;;0.10;0.10;;;10.50;99.90;;;;;;5026189;28;20037;-67
2022/04/06 05:58:39;;;;;;;0.10;0.10;;;10.50;99.90;;;;;;5031583;28;20399;-68
2022/04/06 06:01:04;;;;;;;0.10;0.10;;;10.50;99.90;;;;;;5004326;28;20548;-67
2022/04/06 06:03:30;;;;;;;0.10;0.10;;;10.50;99.90;;;;;;5006782;28;20089;-69
2022/04/06 06:05:56;;;;;;;0.10;0.10;;;10.50;99.90;;;;;;4998485;28;20127;-67
2022/04/06 06:08:21;;;;;;;0.10;0.10;;;10.60;99.90;;;;;;5005442;28;20029;-67
2022/04/06 06:10:47;;;;;;;0.10;0.10;;;10.60;99.90;;;;;;5006468;28;20038;-68
2022/04/06 06:13:13;;;;;;;0.10;0.10;;;10.60;99.90;;;;;;5004438;28;20061;-70
2022/04/06 06:15:38;;;;;;;0.57;0.57;;;10.60;99.90;;;;;;5005792;28;20038;-67
2022/04/06 06:18:04;;;;;;;0.10;0.10;;;10.70;99.90;;;;;;5008161;28;20101;-70
2022/04/06 06:20:30;;;;;;;0.10;0.10;;;10.60;99.90;;;;;;5011159;28;20582;-67
2022/04/06 06:22:55;;;;;;;0.10;0.10;;;10.70;99.90;;;;;;5006655;28;20014;-68
2022/04/06 06:25:21;;;;;;;0.10;0.10;;;10.80;99.90;;;;;;5008290;28;20033;-69
2022/04/06 06:27:46;;;;;;;0.10;0.10;;;10.70;99.90;;;;;;5009903;28;20105;-69
2022/04/06 06:30:13;;;;;;;0.10;0.10;;;10.70;99.90;;;;;;5007774;28;20396;-69
2022/04/06 06:32:40;;;;;;;0.10;0.10;;;10.80;99.90;;;;;;5002735;28;20089;-69
2022/04/06 06:35:08;;;;;;;0.10;0.10;;;10.80;99.90;;;;;;5006044;28;20616;-69
2022/04/06 06:37:34;;;;;;;0.10;0.10;;;10.80;99.90;;;;;;5011014;28;20087;-68
2022/04/06 06:39:59;;;;;;;0.10;0.10;;;10.90;99.90;;;;;;5006912;28;20109;-68
2022/04/06 06:42:25;;;;;;;0.10;0.10;;;10.90;99.90;;;;;;5009271;28;20105;-68
2022/04/06 06:44:51;;;;;;;0.10;0.10;;;10.90;99.90;;;;;;5006307;28;20646;-69
2022/04/06 06:47:17;;;;;;;0.10;0.10;;;11.00;99.90;;;;;;5002910;28;20034;-69
2022/04/06 06:49:46;;;;;;;0.10;0.10;;;11.00;99.90;;;;;;5009017;28;20042;-68
2022/04/06 06:52:13;;;;;;;0.10;0.10;;;11.10;99.90;;;;;;5003942;28;20038;-68
2022/04/06 06:54:39;;;;;;;0.10;0.10;;;11.10;99.90;;;;;;5003702;28;20026;-68
2022/04/06 06:57:10;;;;;;;0.10;0.10;;;11.10;99.90;;;;;;5003108;28;20535;-70
2022/04/06 06:59:36;;;;;;;0.30;0.22;;;11.20;99.90;;;;;;5004313;28;20042;-69
2022/04/06 07:02:02;;;;;;;0.20;0.20;;;11.20;99.90;;;;;;5005379;28;20037;-68
2022/04/06 07:04:27;;;;;;;0.10;0.10;;;11.20;99.90;;;;;;5006513;28;20420;-68
2022/04/06 07:06:53;;;;;;;0.10;0.10;;;11.30;99.90;;;;;;5006829;28;20032;-67
2022/04/06 07:09:18;;;;;;;0.10;0.10;;;11.40;99.90;;;;;;5009965;28;20109;-71
2022/04/06 07:11:44;;;;;;;0.10;0.10;;;11.50;99.90;;;;;;5007186;28;20064;-70
2022/04/06 07:14:10;;;;;;;4.13;3.83;;;11.50;99.90;;;;;;5007658;28;20033;-68
2022/04/06 07:16:36;;;;;;;0.10;0.10;;;11.60;99.90;;;;;;5000926;28;20026;-66
2022/04/06 07:19:02;;;;;;;0.10;0.10;;;11.60;99.90;;;;;;5006422;28;20037;-67
2022/04/06 07:21:27;;;;;;;0.10;0.10;;;11.60;99.90;;;;;;5003757;28;20028;-69
2022/04/06 07:23:55;;;;;;;0.35;0.35;;;11.60;99.90;;;;;;5009301;28;20057;-68
2022/04/06 07:26:21;;;;;;;0.10;0.10;;;11.60;99.90;;;;;;5009106;28;20018;-67
2022/04/06 07:28:47;;;;;;;0.28;0.28;;;11.60;99.90;;;;;;5009163;28;20480;-68
2022/04/06 07:31:13;;;;;;;0.10;0.10;;;11.70;99.90;;;;;;5009741;28;20057;-71
2022/04/06 07:33:40;;;;;;;0.10;0.10;;;12.50;99.90;;;;;;5010014;28;20057;-68
2022/04/06 07:36:06;;;;;;;0.10;0.10;;;11.70;99.90;;;;;;5006149;28;20026;-70
2022/04/06 07:38:32;;;;;;;0.10;0.10;;;11.80;99.90;;;;;;5008716;28;20030;-70
2022/04/06 07:40:58;;;;;;;0.10;0.10;;;11.80;99.90;;;;;;5010383;28;20489;-69
2022/04/06 07:43:24;;;;;;;0.10;0.10;;;11.80;99.90;;;;;;5004799;28;20080;-70
2022/04/06 07:45:50;;;;;;;0.10;0.10;;;11.80;99.90;;;;;;5010490;28;20126;-70
2022/04/06 07:48:16;;;;;;;0.10;0.10;;;11.80;99.90;;;;;;5002283;28;20140;-73
2022/04/06 07:50:41;;;;;;;0.10;0.10;;;11.80;99.90;;;;;;5006745;28;20041;-72
2022/04/06 07:53:07;;;;;;;0.10;0.10;;;11.80;99.90;;;;;;5009368;28;20030;-73
2022/04/06 07:55:33;;;;;;;0.10;0.10;;;11.90;99.90;;;;;;5002497;28;20060;-70
2022/04/06 07:57:59;;;;;;;0.10;0.10;;;11.90;99.90;;;;;;5002772;28;20076;-72
2022/04/06 08:00:25;;;;;;;0.05;0.05;;;12.00;99.90;;;;;;5004182;28;20037;-70
2022/04/06 08:02:51;;;;;;;0.10;0.10;;;12.10;99.90;;;;;;5005156;28;20033;-70
2022/04/06 08:05:18;;;;;;;0.10;0.10;;;12.20;99.90;;;;;;5005344;28;20634;-70
2022/04/06 08:07:45;;;;;;;0.10;0.10;;;12.30;99.90;;;;;;5006499;28;20480;-70
2022/04/06 08:10:13;;;;;;;0.10;0.10;;;12.30;99.90;;;;;;5006876;28;20018;-70
2022/04/06 08:12:39;;;;;;;0.10;0.10;;;12.40;99.90;;;;;;5002621;28;20519;-69
2022/04/06 08:15:06;;;;;;;0.10;0.10;;;12.40;99.90;;;;;;5006585;28;20033;-70
2022/04/06 08:17:36;;;;;;;0.10;0.10;;;12.50;99.90;;;;;;5005171;28;20026;-69
2022/04/06 08:20:04;;;;;;;0.00;0.00;;;12.70;99.90;;;;;;5000702;28;20520;-68
2022/04/06 08:22:30;;;;;;;0.10;0.10;;;12.70;99.90;;;;;;5000827;28;20069;-68
2022/04/06 08:24:56;;;;;;;0.10;0.10;;;12.80;99.90;;;;;;5009911;28;20022;-69
2022/04/06 08:27:22;;;;;;;0.00;0.00;;;12.70;99.90;;;;;;5003196;28;20898;-67
2022/04/06 08:29:47;;;;;;;0.00;0.00;;;12.70;99.90;;;;;;5002544;28;20493;-71
2022/04/06 08:32:14;;;;;;;0.10;0.10;;;12.80;99.90;;;;;;5008238;28;20362;-69
2022/04/06 08:34:39;;;;;;;0.10;0.10;;;12.80;99.90;;;;;;5008869;28;20029;-71
2022/04/06 08:37:05;;;;;;;0.10;0.10;;;12.90;99.90;;;;;;5003348;28;20049;-68
2022/04/06 08:39:31;;;;;;;0.00;0.00;;;12.90;99.90;;;;;;5006567;28;20092;-68
2022/04/06 08:41:57;;;;;;;0.10;0.10;;;12.90;99.90;;;;;;5006529;28;20038;-70
2022/04/06 08:44:23;;;;;;;0.00;0.00;;;13.00;99.90;;;;;;5009026;28;20473;-68
2022/04/06 08:46:51;;;;;;;0.10;0.10;;;12.90;99.90;;;;;;5002628;28;20022;-67
2022/04/06 08:49:17;;;;;;;0.10;0.10;;;12.80;99.90;;;;;;5003449;28;20481;-67
2022/04/06 08:51:45;;;;;;;0.10;0.10;;;12.70;99.90;;;;;;5003933;28;20113;-70
2022/04/06 08:54:11;;;;;;;0.08;0.08;;;12.80;99.90;;;;;;5004489;28;20067;-71
2022/04/06 08:56:37;;;;;;;0.25;0.25;;;13.00;99.90;;;;;;5003399;28;20992;-72
2022/04/06 08:59:04;;;;;;;0.10;0.10;;;13.10;99.90;;;;;;5008377;28;20054;-69
2022/04/06 09:01:33;;;;;;;0.00;0.00;;;13.30;99.90;;;;;;5006189;28;20034;-69
2022/04/06 09:04:00;;;;;;;0.10;0.10;;;13.60;99.90;;;;;;5006470;28;20022;-69
2022/04/06 09:06:29;;;;;;;0.10;0.10;;;13.80;99.90;;;;;;5007370;28;20519;-70
2022/04/06 09:08:55;;;;;;;0.10;0.10;;;13.70;99.90;;;;;;5008654;28;20543;-70
2022/04/06 09:11:21;;;;;;;0.10;0.10;;;13.70;99.90;;;;;;5005620;28;20038;-69
2022/04/06 09:13:57;;;;;;;0.10;0.10;;;13.60;99.90;;;;;;5004044;28;20144;-69
2022/04/06 09:16:28;;;;;;;0.10;0.10;;;13.50;99.90;;;;;;5006918;28;20019;-69
2022/04/06 09:18:53;;;;;;;0.10;0.10;;;13.50;99.90;;;;;;5008877;28;20057;-68
2022/04/06 09:21:19;;;;;;;0.00;0.00;;;13.70;99.90;;;;;;5008176;28;20372;-67
2022/04/06 09:23:49;;;;;;;0.00;0.00;;;13.10;99.90;;;;;;5005137;28;20034;-68
2022/04/06 09:26:17;;;;;;;0.10;0.10;;;13.80;99.90;;;;;;5004337;28;20059;-68
2022/04/06 09:28:46;;;;;;;0.10;0.10;;;13.90;99.90;;;;;;5007854;28;22017;-67
2022/04/06 09:31:16;;;;;;;0.10;0.10;;;14.10;99.90;;;;;;5006041;28;20120;-69
2022/04/06 09:33:54;;;;;;;0.00;0.00;;;14.10;99.90;;;;;;5005569;28;20043;-71
2022/04/06 09:36:21;;;;;;;0.03;0.03;;;13.80;99.90;;;;;;5003935;28;20157;-68
2022/04/06 09:38:51;;;;;;;0.08;0.08;;;13.80;99.90;;;;;;5006997;28;20034;-71
2022/04/06 09:41:19;;;;;;;0.00;0.00;;;13.60;99.90;;;;;;5004168;28;20097;-67
2022/04/06 09:43:50;;;;;;;0.00;0.00;;;13.50;99.90;;;;;;5011386;28;20026;-67
2022/04/06 09:49:08;;;;;;;0.10;0.10;;;13.70;99.90;;;;;;5010493;28;20084;-67
2022/04/06 09:51:35;;;;;;;0.00;0.00;;;13.80;99.90;;;;;;5011865;28;20034;-70
2022/04/06 09:54:06;;;;;;;0.10;0.10;;;13.90;99.90;;;;;;5010598;28;20093;-69
2022/04/06 09:56:34;;;;;;;0.10;0.10;;;13.90;99.90;;;;;;5007333;28;20062;-69
2022/04/06 09:59:02;;;;;;;0.10;0.10;;;14.00;99.90;;;;;;5008161;28;20091;-68
2022/04/06 10:01:34;;;;;;;0.10;0.10;;;14.00;99.90;;;;;;5011628;28;20032;-67
2022/04/06 10:04:05;;;;;;;0.10;0.10;;;14.00;99.90;;;;;;5006205;28;20068;-69
2022/04/06 10:06:35;;;;;;;0.10;0.10;;;13.90;99.90;;;;;;5011046;28;20383;-70
2022/04/06 10:09:08;;;;;;;0.00;0.00;;;14.00;99.90;;;;;;5012340;28;20085;-68
2022/04/06 10:11:35;;;;;;;;;;;14.20;99.90;;;;;;5008195;28;20030;-67
2022/04/06 10:14:04;;;;;;;0.10;0.10;;;14.20;99.90;;;;;;5007294;28;20343;-67
2022/04/06 10:16:31;;;;;;;0.10;0.10;;;14.30;99.90;;;;;;5009750;28;20034;-68
2022/04/06 10:18:58;;;;;;;0.08;0.08;;;14.40;99.90;;;;;;5010688;28;20054;-69
2022/04/06 10:21:55;;;;;;;0.10;0.10;;;14.30;99.90;;;;;;5009531;28;20026;-67
2022/04/06 10:24:39;;;;;;;0.10;0.10;;;14.20;99.90;;;;;;5004119;28;20040;-67
2022/04/06 10:27:25;;;;;;;0.10;0.10;;;14.10;99.90;;;;;;5009757;28;20484;-68
2022/04/06 10:30:23;;;;;;;0.10;0.10;;;14.00;99.90;;;;;;5010777;28;20026;-70
2022/04/06 10:32:52;;;;;;;0.10;0.10;;;14.30;99.90;;;;;;5000354;28;20073;-68
2022/04/06 10:35:35;;;;;;;0.95;0.95;;;14.60;99.90;;;;;;5006582;28;20079;-67
2022/04/06 10:38:04;;;;;;;0.10;0.10;;;15.00;99.90;;;;;;5007449;28;20736;-67
2022/04/06 10:40:52;;;;;;;0.08;0.08;;;15.10;99.90;;;;;;5009219;28;20034;-69
2022/04/06 10:43:40;;;;;;;0.00;0.00;;;15.20;99.90;;;;;;5010238;28;20103;-70
2022/04/06 10:46:10;;;;;;;0.10;0.10;;;15.20;99.90;;;;;;5010660;28;20018;-68
2022/04/06 10:49:15;;;;;;;0.00;0.00;;;15.10;99.90;;;;;;5010624;28;20033;-68
2022/04/06 10:51:46;;;;;;;0.00;0.00;;;14.90;99.90;;;;;;5007522;28;20053;-69
2022/04/06 10:54:14;;;;;;;0.00;0.00;;;14.80;99.90;;;;;;5009002;28;20116;-68
2022/04/06 10:56:49;;;;;;;0.05;0.05;;;14.90;99.90;;;;;;5011263;28;20100;-70
2022/04/06 10:59:19;;;;;;;0.10;0.10;;;15.00;99.90;;;;;;5005382;28;20040;-69
2022/04/06 11:01:48;;;;;;;0.10;0.10;;;15.10;99.90;;;;;;5003298;28;20107;-67
2022/04/06 11:04:24;;;;;;;0.00;0.00;;;15.20;99.90;;;;;;5004101;28;20034;-67
2022/04/06 11:12:42;;;;;;;0.10;0.10;;;15.30;99.90;;;;;;5017266;28;20057;-69
2022/04/06 11:15:07;;;;;;;0.00;0.00;;;15.20;99.90;;;;;;5003355;28;20037;-68
2022/04/06 11:17:36;;;;;;;0.10;0.10;;;15.30;99.90;;;;;;5020604;28;20476;-69
2022/04/06 11:20:03;;;;;;;0.10;0.10;;;15.20;99.90;;;;;;5010748;28;20030;-69
2022/04/06 11:22:29;;;;;;;0.10;0.10;;;15.20;99.90;;;;;;5007386;28;20033;-70
2022/04/06 11:24:55;;;;;;;0.10;0.10;;;15.10;99.90;;;;;;5012535;28;20017;-68
2022/04/06 11:27:32;;;;;;;0.10;0.10;;;15.10;99.90;;;;;;5011766;28;20492;-68
2022/04/06 11:30:13;;;;;;;0.10;0.10;;;15.10;99.90;;;;;;5007496;28;20053;-68
2022/04/06 11:32:40;;;;;;;0.00;0.00;;;15.10;99.90;;;;;;5014295;28;20049;-66
2022/04/06 11:35:11;;;;;;;0.43;0.43;;;15.10;99.90;;;;;;5016322;28;20022;-67
2022/04/06 11:37:47;;;;;;;0.10;0.10;;;15.20;99.90;;;;;;5008040;28;20026;-68
2022/04/06 11:40:14;;;;;;;0.10;0.10;;;15.30;99.90;;;;;;5014738;28;20041;-67
2022/04/06 11:42:40;;;;;;;0.10;0.10;;;15.40;99.90;;;;;;5015840;28;20492;-67
2022/04/06 11:45:07;;;;;;;0.10;0.10;;;15.40;99.90;;;;;;5017994;28;20053;-68
2022/04/06 11:47:35;;;;;;;0.00;0.00;;;15.50;99.90;;;;;;5013229;28;20018;-67
2022/04/06 11:50:08;;;;;;;0.00;0.00;;;15.50;99.90;;;;;;5012896;28;20088;-67
2022/04/06 11:52:34;;;;;;;0.00;0.00;;;15.50;99.90;;;;;;5014722;28;20120;-67
2022/04/06 11:55:00;;;;;;;0.10;0.10;;;15.50;99.90;;;;;;5004587;28;20109;-68
2022/04/06 11:57:34;;;;;;;0.00;0.00;;;15.60;99.90;;;;;;5016872;28;20125;-66
2022/04/06 12:00:01;;;;;;;0.10;0.10;;;15.70;99.90;;;;;;5010491;28;20033;-69
2022/04/06 12:02:26;;;;;;;0.08;0.08;;;15.70;99.90;;;;;;5013713;28;20029;-68
2022/04/06 12:05:00;;;;;;;0.00;0.00;;;15.80;99.90;;;;;;5019375;28;20392;-69
2022/04/06 12:07:25;;;;;;;;;;;16.00;99.90;;;;;;5006890;28;20488;-69
2022/04/06 12:09:51;;;;;;;0.00;0.00;;;16.00;99.90;;;;;;5014323;28;19968;-68
2022/04/06 12:12:18;;;;;;;0.10;0.10;;;16.10;99.90;;;;;;5010323;28;20515;-68
2022/04/06 12:14:45;;;;;;;0.00;0.00;;;16.00;99.90;;;;;;5018947;28;20068;-68
2022/04/06 12:17:13;;;;;;;0.10;0.10;;;16.00;99.90;;;;;;5014720;28;20044;-67
2022/04/06 12:19:39;;;;;;;0.08;0.08;;;16.10;99.90;;;;;;5013989;28;20028;-68
2022/04/06 12:22:07;;;;;;;0.10;0.10;;;16.00;99.90;;;;;;5011924;28;20032;-70
2022/04/06 12:24:41;;;;;;;0.10;0.10;;;16.10;99.90;;;;;;5003453;28;20026;-68
2022/04/06 12:27:07;;;;;;;0.10;0.10;;;16.20;99.90;;;;;;5010460;28;20029;-71
2022/04/06 12:29:35;;;;;;;0.00;0.00;;;16.40;99.00;;;;;;5011708;28;20063;-69
2022/04/06 12:32:03;;;;;;;0.00;0.00;;;16.40;98.00;;;;;;5009245;28;20053;-68
2022/04/06 12:34:37;;;;;;;0.00;0.00;;;16.50;97.40;;;;;;5013420;28;20091;-67
2022/04/06 12:39:54;;;;;;;0.10;0.10;;;16.60;96.40;;;;;;5012980;28;20055;-65
2022/04/06 12:42:24;;;;;;;0.05;0.05;;;16.70;95.50;;;;;;5008755;28;20161;-67
2022/04/06 12:45:06;;;;;;;0.00;0.00;;;17.00;93.40;;;;;;5011101;28;20049;-67
2022/04/06 12:47:31;;;;;;;0.10;0.10;;;17.30;92.20;;;;;;5004858;28;20026;-67
2022/04/06 12:50:10;;;;;;;0.10;0.10;;;18.00;90.50;;;;;;5005575;28;20095;-69
2022/04/06 12:52:37;;;;;;;0.10;0.10;;;18.80;85.90;;;;;;5008549;28;20187;-66
2022/04/06 12:55:06;;;;;;;0.10;0.10;;;19.20;81.40;;;;;;5005582;28;20022;-67
2022/04/06 12:57:34;;;;;;;0.10;0.10;;;18.80;81.60;;;;;;5006709;28;20030;-67
2022/04/06 13:00:08;;;;;;;0.00;0.00;;;19.10;80.10;;;;;;5006568;28;20065;-68
2022/04/06 13:02:44;;;;;;;0.00;0.00;;;19.50;76.70;;;;;;5008089;28;20603;-67
2022/04/06 13:05:12;;;;;;;0.00;0.00;;;19.90;74.70;;;;;;5007360;28;20026;-70
2022/04/06 13:07:43;;;;;;;0.00;0.00;;;19.80;73.40;;;;;;5004614;28;20029;-67